< < Back
Terminal Aerodrome Forecast


Current Version              Previous Versions:   1  2  3  4  5  6  7  8  9  

Terminal Aerodrome Forecast

794
FTUS42 KCAE 240500
TAFCAE
TAF
KCAE 240539Z 2406/2506 00000KT P6SM SCT200
     FM241500 VRB04KT P6SM BKN200=

Latest METAR

572
SAUS80 KWBC 240800
MTRCAE
METAR KCAE 240756Z 00000KT 10SM CLR 11/08 A3003 RMK AO2 SLP168
T01110078


USA.gov is the U.S. government's official web portal to all federal, state and local government web resources and services.